createdAt,value
2022-07-29T00:01:06.472Z,16.96
2022-07-29T00:03:34.006Z,16.89
2022-07-29T00:06:01.493Z,16.86
2022-07-29T00:08:29.196Z,16.90
2022-07-29T00:10:56.680Z,16.81
2022-07-29T00:13:32.257Z,16.86
2022-07-29T00:16:04.526Z,16.86
2022-07-29T00:18:32.654Z,16.74
2022-07-29T00:21:00.163Z,16.80
2022-07-29T00:23:27.765Z,16.83
2022-07-29T00:25:55.221Z,16.80
2022-07-29T00:28:22.650Z,16.80
2022-07-29T00:30:50.078Z,16.75
2022-07-29T00:33:18.900Z,16.72
2022-07-29T00:35:45.397Z,16.66
2022-07-29T00:38:13.506Z,16.62
2022-07-29T00:40:43.251Z,16.63
2022-07-29T00:43:11.836Z,16.54
2022-07-29T00:45:39.348Z,16.65
2022-07-29T00:48:09.486Z,16.62
2022-07-29T00:50:39.312Z,16.53
2022-07-29T00:53:07.980Z,16.58
2022-07-29T00:55:35.761Z,16.56
2022-07-29T00:58:03.198Z,16.49
2022-07-29T01:00:31.699Z,16.50
2022-07-29T01:02:59.308Z,16.48
2022-07-29T01:05:50.271Z,16.50
2022-07-29T01:08:17.511Z,16.47
2022-07-29T01:10:46.005Z,16.43
2022-07-29T01:13:13.968Z,16.44
2022-07-29T01:15:49.321Z,16.48
2022-07-29T01:18:18.963Z,16.49
2022-07-29T01:21:00.078Z,16.49
2022-07-29T01:23:46.764Z,16.35
2022-07-29T01:26:34.956Z,16.42
2022-07-29T01:29:07.811Z,16.38
2022-07-29T01:31:44.303Z,16.42
2022-07-29T01:34:29.118Z,16.37
2022-07-29T01:36:59.482Z,16.40
2022-07-29T01:39:28.307Z,16.41
2022-07-29T01:41:59.330Z,16.40
2022-07-29T01:44:32.601Z,16.37
2022-07-29T01:47:00.876Z,16.30
2022-07-29T01:49:30.181Z,16.26
2022-07-29T01:51:59.416Z,16.26
2022-07-29T01:54:28.542Z,16.22
2022-07-29T01:56:58.388Z,16.17
2022-07-29T01:59:26.829Z,16.15
2022-07-29T02:01:59.336Z,16.11
2022-07-29T02:04:29.847Z,16.05
2022-07-29T02:07:00.669Z,16.04
2022-07-29T02:09:28.667Z,16.04
2022-07-29T02:11:57.139Z,16.07
2022-07-29T02:14:25.107Z,16.01
2022-07-29T02:16:55.008Z,16.00
2022-07-29T02:19:25.955Z,16.01
2022-07-29T02:21:54.964Z,16.02
2022-07-29T02:24:23.021Z,16.06
2022-07-29T02:26:51.474Z,16.06
2022-07-29T02:29:21.050Z,16.05
2022-07-29T02:31:49.788Z,16.03
2022-07-29T02:34:18.141Z,16.09
2022-07-29T02:36:50.498Z,16.00
2022-07-29T02:39:19.230Z,16.07
2022-07-29T02:41:48.773Z,16.05
2022-07-29T02:44:17.971Z,16.08
2022-07-29T02:46:50.058Z,16.03
2022-07-29T02:49:18.897Z,16.07
2022-07-29T02:51:48.192Z,16.09
2022-07-29T02:54:24.289Z,16.09
2022-07-29T02:56:54.628Z,16.12
2022-07-29T02:59:23.975Z,16.02
2022-07-29T03:01:51.806Z,16.04
2022-07-29T03:04:21.387Z,16.05
2022-07-29T03:06:50.523Z,16.05
2022-07-29T03:09:18.120Z,16.04
2022-07-29T03:11:49.791Z,16.05
2022-07-29T03:14:19.046Z,16.06
2022-07-29T03:16:47.055Z,15.73
2022-07-29T03:19:14.805Z,16.03
2022-07-29T03:21:42.314Z,16.04
2022-07-29T03:24:10.735Z,16.02
2022-07-29T03:26:39.759Z,16.04
2022-07-29T03:29:08.547Z,16.00
2022-07-29T03:31:41.689Z,16.00
2022-07-29T03:34:11.222Z,15.98
2022-07-29T03:36:38.720Z,16.01
2022-07-29T03:39:06.484Z,16.00
2022-07-29T03:41:35.700Z,15.99
2022-07-29T03:44:04.087Z,15.98
2022-07-29T03:46:34.268Z,16.01
2022-07-29T03:49:03.263Z,16.03
2022-07-29T03:51:33.761Z,15.97
2022-07-29T03:54:07.686Z,15.98
2022-07-29T03:56:39.898Z,15.97
2022-07-29T03:59:07.664Z,15.91
2022-07-29T04:01:37.231Z,15.92
2022-07-29T04:04:05.664Z,15.93
2022-07-29T04:06:40.029Z,15.93
2022-07-29T04:09:09.832Z,15.89
2022-07-29T04:12:01.633Z,15.85
2022-07-29T04:14:25.497Z,15.93
2022-07-29T04:16:54.556Z,15.95
2022-07-29T04:19:22.062Z,15.94
2022-07-29T04:21:49.560Z,15.94
2022-07-29T04:24:17.442Z,15.96
2022-07-29T04:26:45.463Z,16.00
2022-07-29T04:29:12.958Z,15.94
2022-07-29T04:31:40.405Z,15.98
2022-07-29T04:34:09.944Z,15.99
2022-07-29T04:36:37.445Z,15.97
2022-07-29T04:39:05.392Z,15.99
2022-07-29T04:41:33.702Z,16.03
2022-07-29T04:44:12.310Z,15.94
2022-07-29T04:46:39.808Z,15.99
2022-07-29T04:49:07.370Z,16.01
2022-07-29T04:51:36.298Z,16.04
2022-07-29T04:54:03.791Z,16.09
2022-07-29T04:56:31.191Z,16.14
2022-07-29T04:58:58.650Z,16.11
2022-07-29T05:01:26.159Z,16.10
2022-07-29T05:03:58.366Z,16.07
2022-07-29T05:06:27.685Z,16.17
2022-07-29T05:08:56.561Z,16.20
2022-07-29T05:11:26.116Z,16.29
2022-07-29T05:13:57.519Z,16.25
2022-07-29T05:16:25.142Z,16.25
2022-07-29T05:18:52.714Z,16.29
2022-07-29T05:21:20.205Z,16.30
2022-07-29T05:23:47.622Z,16.36
2022-07-29T05:26:16.479Z,16.39
2022-07-29T05:28:43.973Z,16.42
2022-07-29T05:31:11.526Z,16.44
2022-07-29T05:33:39.005Z,16.54
2022-07-29T05:36:08.010Z,16.45
2022-07-29T05:38:36.316Z,16.53
2022-07-29T05:41:03.783Z,16.54
2022-07-29T05:43:32.728Z,16.59
2022-07-29T05:46:00.332Z,16.56
2022-07-29T05:48:27.982Z,16.52
2022-07-29T05:50:55.979Z,16.56
2022-07-29T05:53:24.007Z,16.54
2022-07-29T05:55:51.664Z,16.59
2022-07-29T05:58:19.267Z,16.58
2022-07-29T06:00:48.150Z,16.60
2022-07-29T06:03:15.581Z,16.60
2022-07-29T06:05:43.048Z,16.60
2022-07-29T06:08:10.469Z,16.58
2022-07-29T06:10:37.902Z,16.64
2022-07-29T06:13:05.571Z,16.59
2022-07-29T06:15:33.185Z,16.45
2022-07-29T06:18:02.477Z,16.51
2022-07-29T06:20:31.118Z,16.59
2022-07-29T06:22:59.199Z,16.64
2022-07-29T06:25:26.747Z,16.71
2022-07-29T06:27:54.336Z,16.84
2022-07-29T06:30:21.890Z,17.01
2022-07-29T06:32:50.340Z,17.24
2022-07-29T06:35:38.296Z,17.38
2022-07-29T06:38:30.405Z,17.64
2022-07-29T06:41:03.304Z,17.75
2022-07-29T06:43:32.601Z,18.10
2022-07-29T06:46:01.059Z,18.07
2022-07-29T06:48:29.112Z,17.94
2022-07-29T06:50:57.913Z,17.88
2022-07-29T06:53:25.483Z,17.92
2022-07-29T06:55:52.861Z,18.03
2022-07-29T06:58:21.433Z,18.21
2022-07-29T07:00:49.437Z,18.27
2022-07-29T07:03:17.080Z,18.18
2022-07-29T07:05:45.086Z,18.11
2022-07-29T07:08:14.134Z,18.23
2022-07-29T07:10:41.882Z,18.42
2022-07-29T07:13:09.610Z,18.41
2022-07-29T07:15:39.780Z,18.55
2022-07-29T07:18:08.129Z,18.58
2022-07-29T07:20:35.646Z,18.79
2022-07-29T07:23:03.111Z,18.95
2022-07-29T07:25:32.251Z,19.21
2022-07-29T07:28:00.127Z,18.99
2022-07-29T07:30:28.181Z,18.70
2022-07-29T07:32:56.250Z,18.88
2022-07-29T07:35:23.818Z,19.19
2022-07-29T07:37:51.290Z,19.09
2022-07-29T07:40:18.977Z,18.98
2022-07-29T07:42:47.829Z,19.31
2022-07-29T07:45:15.848Z,19.49
2022-07-29T07:47:43.756Z,19.70
2022-07-29T07:50:18.000Z,19.39
2022-07-29T07:52:49.983Z,19.82
2022-07-29T07:55:17.571Z,20.03
2022-07-29T07:57:45.190Z,20.11
2022-07-29T08:00:14.945Z,20.30
2022-07-29T08:02:43.726Z,20.40
2022-07-29T08:05:12.990Z,20.50
2022-07-29T08:07:40.674Z,20.78
2022-07-29T08:10:08.467Z,20.88
2022-07-29T08:12:35.939Z,20.58
2022-07-29T08:15:03.354Z,20.64
2022-07-29T08:17:32.164Z,20.48
2022-07-29T08:20:03.040Z,20.50
2022-07-29T08:22:30.647Z,20.72
2022-07-29T08:24:58.042Z,20.69
2022-07-29T08:27:43.333Z,20.33
2022-07-29T08:30:11.642Z,20.82
2022-07-29T08:32:56.375Z,21.37
2022-07-29T08:35:24.965Z,21.54
2022-07-29T08:37:52.829Z,21.60
2022-07-29T08:40:21.405Z,21.66
2022-07-29T08:42:59.638Z,22.29
2022-07-29T08:45:27.285Z,21.09
2022-07-29T08:47:57.294Z,21.56
2022-07-29T08:50:24.786Z,21.12
2022-07-29T08:52:56.573Z,21.23
2022-07-29T08:55:27.170Z,22.38
2022-07-29T08:57:57.337Z,22.86
2022-07-29T09:00:26.132Z,23.50
2022-07-29T09:02:58.300Z,23.73
2022-07-29T09:05:27.961Z,24.01
2022-07-29T09:07:55.724Z,24.28
2022-07-29T09:10:23.255Z,24.24
2022-07-29T09:12:50.850Z,24.44
2022-07-29T09:15:19.546Z,24.44
2022-07-29T09:17:48.094Z,24.54
2022-07-29T09:20:16.563Z,24.78
2022-07-29T09:22:48.115Z,24.91
2022-07-29T09:25:15.689Z,24.43
2022-07-29T09:27:43.147Z,24.48
2022-07-29T09:30:11.978Z,24.49
2022-07-29T09:32:54.308Z,25.00
2022-07-29T09:35:22.864Z,24.88
2022-07-29T09:37:51.867Z,24.57
2022-07-29T09:40:20.677Z,24.77
2022-07-29T09:42:48.512Z,25.28
2022-07-29T09:45:28.342Z,25.27
2022-07-29T09:47:58.127Z,25.09
2022-07-29T09:50:36.301Z,24.97
2022-07-29T09:53:05.119Z,25.40
2022-07-29T09:55:32.679Z,25.26
2022-07-29T09:58:17.031Z,25.15
2022-07-29T10:00:46.759Z,25.37
2022-07-29T10:03:14.323Z,25.66
2022-07-29T10:05:42.971Z,25.97
2022-07-29T10:08:13.251Z,26.21
2022-07-29T10:10:41.534Z,26.04
2022-07-29T10:13:15.368Z,26.25
2022-07-29T10:15:46.091Z,26.56
2022-07-29T10:18:14.467Z,26.75
2022-07-29T10:20:42.006Z,26.63
2022-07-29T10:23:10.645Z,26.64
2022-07-29T10:25:39.458Z,26.48
2022-07-29T10:28:07.561Z,26.47
2022-07-29T10:30:35.399Z,26.65
2022-07-29T10:33:23.597Z,26.76
2022-07-29T10:36:00.965Z,26.25
2022-07-29T10:38:38.750Z,26.48
2022-07-29T10:41:32.086Z,26.85
2022-07-29T10:44:01.442Z,26.52
2022-07-29T10:46:29.388Z,27.21
2022-07-29T10:49:08.059Z,27.63
2022-07-29T10:51:53.832Z,28.10
2022-07-29T10:54:37.754Z,28.14
2022-07-29T10:57:15.685Z,28.62
2022-07-29T10:59:44.134Z,28.62
2022-07-29T11:02:42.470Z,28.03
2022-07-29T11:05:12.733Z,28.00
2022-07-29T11:07:45.923Z,28.61
2022-07-29T11:10:27.053Z,29.02
2022-07-29T11:13:00.430Z,29.29
2022-07-29T11:15:31.607Z,29.40
2022-07-29T11:18:06.342Z,29.55
2022-07-29T11:20:34.958Z,29.90
2022-07-29T11:23:19.291Z,30.16
2022-07-29T11:25:50.653Z,30.14
2022-07-29T11:28:25.241Z,30.62
2022-07-29T11:30:53.794Z,30.77
2022-07-29T11:33:54.478Z,30.65
2022-07-29T11:36:18.535Z,29.72
2022-07-29T11:39:15.299Z,29.04
2022-07-29T11:41:42.784Z,29.82
2022-07-29T11:44:11.648Z,30.03
2022-07-29T11:46:49.681Z,30.72
2022-07-29T11:49:21.929Z,31.10
2022-07-29T11:51:52.495Z,31.54
2022-07-29T11:57:13.174Z,31.53
2022-07-29T11:59:48.481Z,31.87
2022-07-29T12:02:36.704Z,31.89
2022-07-29T12:07:51.879Z,32.52
2022-07-29T12:10:30.468Z,32.79
2022-07-29T12:12:58.351Z,32.68
2022-07-29T12:15:39.253Z,32.46
2022-07-29T12:18:15.136Z,33.03
2022-07-29T12:20:42.642Z,33.13
2022-07-29T12:23:13.830Z,33.66
2022-07-29T12:25:44.473Z,34.00
2022-07-29T12:28:27.496Z,34.28
2022-07-29T12:30:56.868Z,34.24
2022-07-29T12:33:26.380Z,34.46
2022-07-29T12:36:06.985Z,34.64
2022-07-29T12:38:36.212Z,34.15
2022-07-29T12:41:04.563Z,34.82
2022-07-29T12:43:32.459Z,35.22
2022-07-29T12:46:13.178Z,35.39
2022-07-29T12:48:41.600Z,35.78
2022-07-29T12:51:09.977Z,35.57
2022-07-29T12:53:37.719Z,35.37
2022-07-29T12:56:20.707Z,36.20
2022-07-29T12:58:53.389Z,35.59
2022-07-29T13:01:22.758Z,35.84
2022-07-29T13:03:56.661Z,36.18
2022-07-29T13:06:31.577Z,35.77
2022-07-29T13:09:04.769Z,36.00
2022-07-29T13:11:34.156Z,36.79
2022-07-29T13:14:05.902Z,36.98
2022-07-29T13:16:36.395Z,36.51
2022-07-29T13:19:07.923Z,36.28
2022-07-29T13:21:35.360Z,36.91
2022-07-29T13:24:02.958Z,37.36
2022-07-29T13:26:30.405Z,37.22
2022-07-29T13:28:57.882Z,36.85
2022-07-29T13:31:25.361Z,36.22
2022-07-29T13:33:54.133Z,36.56
2022-07-29T13:36:22.040Z,36.76
2022-07-29T13:38:49.532Z,36.75
2022-07-29T13:41:17.056Z,37.04
2022-07-29T13:43:45.540Z,36.81
2022-07-29T13:46:17.516Z,37.07
2022-07-29T13:48:45.037Z,36.67
2022-07-29T13:51:14.079Z,36.59
2022-07-29T13:53:41.630Z,36.57
2022-07-29T13:56:09.121Z,36.69
2022-07-29T13:58:37.026Z,36.78
2022-07-29T14:01:04.767Z,36.69
2022-07-29T14:03:32.543Z,36.88
2022-07-29T14:06:00.900Z,36.55
2022-07-29T14:08:30.334Z,36.76
2022-07-29T14:10:57.763Z,36.47
2022-07-29T14:13:26.380Z,36.55
2022-07-29T14:15:54.337Z,36.55
2022-07-29T14:18:21.788Z,37.20
2022-07-29T14:20:49.292Z,35.24
2022-07-29T14:23:16.715Z,35.46
2022-07-29T14:25:49.398Z,35.65
2022-07-29T14:28:17.239Z,36.12
2022-07-29T14:30:44.741Z,36.03
2022-07-29T14:33:12.254Z,36.25
2022-07-29T14:35:40.129Z,33.53
2022-07-29T14:38:07.573Z,34.09
2022-07-29T14:40:35.150Z,34.89
2022-07-29T14:43:03.998Z,34.35
2022-07-29T14:45:32.437Z,35.28
2022-07-29T14:48:00.815Z,35.25
2022-07-29T14:50:31.422Z,35.14
2022-07-29T14:52:59.668Z,34.86
2022-07-29T14:55:27.229Z,35.70
2022-07-29T14:58:03.066Z,35.82
2022-07-29T15:00:37.804Z,35.44
2022-07-29T15:03:05.643Z,35.53
2022-07-29T15:05:33.212Z,35.31
2022-07-29T15:08:01.048Z,35.54
2022-07-29T15:10:28.971Z,35.57
2022-07-29T15:12:57.658Z,35.53
2022-07-29T15:15:25.180Z,35.42
2022-07-29T15:17:54.015Z,34.99
2022-07-29T15:20:22.252Z,34.81
2022-07-29T15:22:49.724Z,34.74
2022-07-29T15:25:17.269Z,34.97
2022-07-29T15:27:49.698Z,34.84
2022-07-29T15:30:32.842Z,34.75
2022-07-29T15:33:02.617Z,34.53
2022-07-29T15:35:30.125Z,33.84
2022-07-29T15:37:57.588Z,32.39
2022-07-29T15:40:25.067Z,32.57
2022-07-29T15:42:52.494Z,32.94
2022-07-29T15:45:19.988Z,33.22
2022-07-29T15:47:47.418Z,32.85
2022-07-29T15:50:16.840Z,33.13
2022-07-29T15:52:44.617Z,33.12
2022-07-29T15:55:12.057Z,32.47
2022-07-29T15:57:40.821Z,31.62
2022-07-29T16:00:09.093Z,31.66
2022-07-29T16:02:36.611Z,32.17
2022-07-29T16:05:04.146Z,31.98
2022-07-29T16:07:38.637Z,32.12
2022-07-29T16:10:07.786Z,31.95
2022-07-29T16:12:35.253Z,31.57
2022-07-29T16:15:07.527Z,31.31
2022-07-29T16:17:37.177Z,31.31
2022-07-29T16:20:08.134Z,31.42
2022-07-29T16:22:35.801Z,31.05
2022-07-29T16:25:04.778Z,31.02
2022-07-29T16:27:37.534Z,31.03
2022-07-29T16:30:05.996Z,30.75
2022-07-29T16:32:33.635Z,30.59
2022-07-29T16:35:02.610Z,30.27
2022-07-29T16:37:33.381Z,29.94
2022-07-29T16:40:00.833Z,29.41
2022-07-29T16:42:46.028Z,29.08
2022-07-29T16:45:14.615Z,28.75
2022-07-29T16:47:42.052Z,28.59
2022-07-29T16:50:09.571Z,28.25
2022-07-29T16:52:37.586Z,28.02
2022-07-29T16:55:05.411Z,27.86
2022-07-29T16:57:34.198Z,27.68
2022-07-29T17:00:01.616Z,27.59
2022-07-29T17:02:29.087Z,27.38
2022-07-29T17:04:56.504Z,27.18
2022-07-29T17:07:23.914Z,27.05
2022-07-29T17:09:55.351Z,26.70
2022-07-29T17:12:23.435Z,26.52
2022-07-29T17:14:52.211Z,26.44
2022-07-29T17:17:20.662Z,26.32
2022-07-29T17:20:06.612Z,26.11
2022-07-29T17:22:34.065Z,25.86
2022-07-29T17:25:01.552Z,25.66
2022-07-29T17:27:29.009Z,25.56
2022-07-29T17:29:58.343Z,25.53
2022-07-29T17:32:25.959Z,25.51
2022-07-29T17:34:53.437Z,25.44
2022-07-29T17:37:20.979Z,25.29
2022-07-29T17:39:48.485Z,25.25
2022-07-29T17:42:15.857Z,25.20
2022-07-29T17:44:44.303Z,25.12
2022-07-29T17:47:16.178Z,25.02
2022-07-29T17:49:43.957Z,24.92
2022-07-29T17:52:12.243Z,24.86
2022-07-29T17:54:39.662Z,24.72
2022-07-29T17:57:07.124Z,24.53
2022-07-29T17:59:34.637Z,24.55
2022-07-29T18:02:02.143Z,24.48
2022-07-29T18:04:31.462Z,24.41
2022-07-29T18:06:59.440Z,24.37
2022-07-29T18:09:27.218Z,24.22
2022-07-29T18:11:54.709Z,24.10
2022-07-29T18:14:22.172Z,24.10
2022-07-29T18:16:49.616Z,23.93
2022-07-29T18:19:17.110Z,23.82
2022-07-29T18:21:53.997Z,23.67
2022-07-29T18:24:22.281Z,23.70
2022-07-29T18:26:49.664Z,23.64
2022-07-29T18:29:17.082Z,23.64
2022-07-29T18:31:44.699Z,23.57
2022-07-29T18:34:12.149Z,23.35
2022-07-29T18:36:39.630Z,23.20
2022-07-29T18:39:08.506Z,23.17
2022-07-29T18:41:36.507Z,23.22
2022-07-29T18:44:17.658Z,23.14
2022-07-29T18:46:47.423Z,23.11
2022-07-29T18:49:15.672Z,22.97
2022-07-29T18:51:43.238Z,22.85
2022-07-29T18:54:12.040Z,22.84
2022-07-29T18:56:39.533Z,22.80
2022-07-29T18:59:09.083Z,22.67
2022-07-29T19:01:38.270Z,22.63
2022-07-29T19:04:05.983Z,22.54
2022-07-29T19:06:35.417Z,22.48
2022-07-29T19:09:08.672Z,22.41
2022-07-29T19:11:37.898Z,22.39
2022-07-29T19:14:08.068Z,22.25
2022-07-29T19:16:35.691Z,22.28
2022-07-29T19:19:03.254Z,22.21
2022-07-29T19:21:30.726Z,22.18
2022-07-29T19:24:05.964Z,22.08
2022-07-29T19:26:46.371Z,22.05
2022-07-29T19:29:16.847Z,22.04
2022-07-29T19:31:47.306Z,21.99
2022-07-29T19:34:14.836Z,21.84
2022-07-29T19:36:42.713Z,21.75
2022-07-29T19:39:13.402Z,21.73
2022-07-29T19:41:47.740Z,21.77
2022-07-29T19:44:23.968Z,21.64
2022-07-29T19:46:51.493Z,21.61
2022-07-29T19:49:20.729Z,21.57
2022-07-29T19:51:48.234Z,21.54
2022-07-29T19:54:18.556Z,21.43
2022-07-29T19:56:47.417Z,21.36
2022-07-29T19:59:18.474Z,21.29
2022-07-29T20:01:51.432Z,21.27
2022-07-29T20:04:18.978Z,21.23
2022-07-29T20:06:49.375Z,21.14
2022-07-29T20:09:20.570Z,21.18
2022-07-29T20:11:49.631Z,21.19
2022-07-29T20:14:17.075Z,21.13
2022-07-29T20:16:45.512Z,21.11
2022-07-29T20:19:13.004Z,21.10
2022-07-29T20:21:40.426Z,21.08
2022-07-29T20:24:08.328Z,20.95
2022-07-29T20:26:35.757Z,20.96
2022-07-29T20:29:05.283Z,20.93
2022-07-29T20:31:33.057Z,20.92
2022-07-29T20:34:01.488Z,20.88
2022-07-29T20:36:29.082Z,20.85
2022-07-29T20:38:56.615Z,20.78
2022-07-29T20:41:25.346Z,20.74
2022-07-29T20:43:52.849Z,20.63
2022-07-29T20:46:21.703Z,20.58
2022-07-29T20:48:49.290Z,20.49
2022-07-29T20:51:16.758Z,20.51
2022-07-29T20:53:44.195Z,20.49
2022-07-29T20:56:12.890Z,20.38
2022-07-29T20:58:40.860Z,20.37
2022-07-29T21:01:09.554Z,20.29
2022-07-29T21:03:41.036Z,20.26
2022-07-29T21:06:09.103Z,20.21
2022-07-29T21:08:36.747Z,20.17
2022-07-29T21:11:04.762Z,20.10
2022-07-29T21:13:37.806Z,20.10
2022-07-29T21:16:12.574Z,20.07
2022-07-29T21:18:46.384Z,20.02
2022-07-29T21:21:15.273Z,19.95
2022-07-29T21:23:43.319Z,19.92
2022-07-29T21:26:12.933Z,19.90
2022-07-29T21:28:41.568Z,19.86
2022-07-29T21:31:10.406Z,19.80
2022-07-29T21:33:38.132Z,19.77
2022-07-29T21:36:35.408Z,19.75
2022-07-29T21:38:54.957Z,19.64
2022-07-29T21:41:22.407Z,19.60
2022-07-29T21:43:49.906Z,19.53
2022-07-29T21:46:18.060Z,19.48
2022-07-29T21:48:45.644Z,19.38
2022-07-29T21:51:14.439Z,19.34
2022-07-29T21:53:41.895Z,19.23
2022-07-29T21:56:14.354Z,19.22
2022-07-29T21:58:42.507Z,19.26
2022-07-29T22:01:09.976Z,19.29
2022-07-29T22:03:37.430Z,19.24
2022-07-29T22:06:05.043Z,19.22
2022-07-29T22:08:33.835Z,19.15
2022-07-29T22:11:01.250Z,19.12
2022-07-29T22:13:28.725Z,19.13
2022-07-29T22:15:56.194Z,19.13
2022-07-29T22:18:23.704Z,19.12
2022-07-29T22:20:51.371Z,19.09
2022-07-29T22:23:18.801Z,19.06
2022-07-29T22:25:47.562Z,19.04
2022-07-29T22:28:15.099Z,19.00
2022-07-29T22:30:42.623Z,18.94
2022-07-29T22:33:10.142Z,18.93
2022-07-29T22:35:45.182Z,18.89
2022-07-29T22:38:16.525Z,18.86
2022-07-29T22:40:43.998Z,18.87
2022-07-29T22:43:12.844Z,18.81
2022-07-29T22:45:40.477Z,18.82
2022-07-29T22:48:07.991Z,18.78
2022-07-29T22:50:35.493Z,18.71
2022-07-29T22:53:02.957Z,18.68
2022-07-29T22:55:30.414Z,18.64
2022-07-29T22:57:57.857Z,18.62
2022-07-29T23:00:26.873Z,18.56
2022-07-29T23:02:54.517Z,18.43
2022-07-29T23:05:22.137Z,18.16
2022-07-29T23:07:49.609Z,18.07
2022-07-29T23:10:17.143Z,18.21
2022-07-29T23:12:44.604Z,18.19
2022-07-29T23:15:12.258Z,18.20
2022-07-29T23:17:41.034Z,18.20
2022-07-29T23:20:08.881Z,18.15
2022-07-29T23:22:37.479Z,18.14
2022-07-29T23:25:06.149Z,18.10
2022-07-29T23:27:33.735Z,18.08
2022-07-29T23:30:01.188Z,17.93
2022-07-29T23:32:28.634Z,17.95
2022-07-29T23:34:57.450Z,17.98
2022-07-29T23:37:26.898Z,17.90
2022-07-29T23:39:54.573Z,17.90
2022-07-29T23:42:22.050Z,17.89
2022-07-29T23:44:49.572Z,17.85
2022-07-29T23:47:17.037Z,17.81
2022-07-29T23:49:44.726Z,17.79
2022-07-29T23:52:13.510Z,17.73
2022-07-29T23:54:40.995Z,17.72
2022-07-29T23:57:08.397Z,17.65
2022-07-29T23:59:36.617Z,17.62
